Time;durP1;ratioP1;P1;durP2;ratioP2;P2;SDS_P1;SDS_P2;PMS_P1;PMS_P2;Temp;Humidity;BMP_temperature;BMP_pressure;BME280_temperature;BME280_humidity;BME280_pressure;Samples;Min_cycle;Max_cycle;Signal;HPM_P1;HPM_P2
2021/12/03 00:00:13;;;;;;;8.25;2.40;;;12.50;99.90;;;;;;4933099;29;20054;-71
2021/12/03 00:03:18;;;;;;;8.32;2.50;;;12.30;99.90;;;;;;4933434;29;20043;-72
2021/12/03 00:06:22;;;;;;;5.30;1.73;;;12.10;99.90;;;;;;4933797;29;20508;-72
2021/12/03 00:09:32;;;;;;;7.40;1.85;;;12.20;99.90;;;;;;4933738;29;20055;-72
2021/12/03 00:12:36;;;;;;;4.00;1.20;;;12.30;99.90;;;;;;4933881;29;20046;-72
2021/12/03 00:15:41;;;;;;;6.68;1.60;;;12.40;99.90;;;;;;4933876;29;20055;-72
2021/12/03 00:18:45;;;;;;;3.83;1.17;;;12.50;99.90;;;;;;4933447;29;20059;-72
2021/12/03 00:21:49;;;;;;;3.28;1.45;;;12.50;99.90;;;;;;4932961;29;20062;-72
2021/12/03 00:24:53;;;;;;;5.82;1.58;;;12.40;99.90;;;;;;4933568;29;20055;-72
2021/12/03 00:27:57;;;;;;;4.47;1.02;;;12.30;99.90;;;;;;4932735;29;20524;-72
2021/12/03 00:31:02;;;;;;;3.08;1.25;;;12.30;99.90;;;;;;4933731;29;20051;-72
2021/12/03 00:34:06;;;;;;;4.72;1.20;;;12.20;99.90;;;;;;4937429;29;20144;-72
2021/12/03 00:37:10;;;;;;;5.18;1.52;;;12.20;99.90;;;;;;4937268;29;20058;-71
2021/12/03 00:40:21;;;;;;;3.40;1.20;;;12.10;99.90;;;;;;4937660;29;20124;-71
2021/12/03 00:43:26;;;;;;;1.92;0.82;;;12.10;99.90;;;;;;4937066;29;20050;-72
2021/12/03 00:46:29;;;;;;;2.50;1.25;;;12.00;99.90;;;;;;4936940;29;20502;-72
2021/12/03 00:49:33;;;;;;;2.70;1.27;;;11.90;99.90;;;;;;4937412;29;20499;-71
2021/12/03 00:52:37;;;;;;;3.47;1.20;;;12.00;99.90;;;;;;4937343;29;20046;-72
2021/12/03 00:55:42;;;;;;;2.42;1.20;;;12.10;99.90;;;;;;4936800;29;20511;-72
2021/12/03 00:58:47;;;;;;;5.63;1.20;;;12.20;99.90;;;;;;4936825;29;20067;-72
2021/12/03 01:01:51;;;;;;;5.55;1.38;;;12.20;99.90;;;;;;4936810;29;20058;-72
2021/12/03 01:04:54;;;;;;;2.63;1.60;;;12.20;99.90;;;;;;4936885;29;20047;-72
2021/12/03 01:07:59;;;;;;;4.13;1.10;;;12.20;99.90;;;;;;4937016;29;20054;-72
2021/12/03 01:11:08;;;;;;;3.75;1.15;;;12.10;99.90;;;;;;4936707;29;20042;-72
2021/12/03 01:14:12;;;;;;;4.43;1.52;;;12.20;99.90;;;;;;4936428;29;20400;-72
2021/12/03 01:17:16;;;;;;;3.35;1.52;;;12.30;99.90;;;;;;4936780;29;20459;-73
2021/12/03 01:20:20;;;;;;;2.97;1.10;;;12.40;99.90;;;;;;4936701;29;20047;-72
2021/12/03 01:23:24;;;;;;;4.35;1.40;;;12.40;99.90;;;;;;4936634;29;20051;-72
2021/12/03 01:26:29;;;;;;;6.60;1.17;;;12.30;99.90;;;;;;4935883;29;20506;-72
2021/12/03 01:29:33;;;;;;;2.20;1.42;;;12.20;99.90;;;;;;4936341;29;20035;-72
2021/12/03 01:32:37;;;;;;;2.80;1.55;;;12.10;99.90;;;;;;4936581;29;20051;-71
2021/12/03 01:35:41;;;;;;;5.38;1.45;;;12.00;99.90;;;;;;4936138;29;20054;-71
2021/12/03 01:38:45;;;;;;;4.35;1.50;;;12.00;99.90;;;;;;4936142;29;20055;-72
2021/12/03 01:41:50;;;;;;;5.72;1.85;;;12.10;99.90;;;;;;4936199;29;20039;-72
2021/12/03 01:44:54;;;;;;;4.47;1.35;;;12.20;99.90;;;;;;4934905;29;20047;-72
2021/12/03 01:47:59;;;;;;;3.72;1.25;;;12.20;99.90;;;;;;4936411;29;20043;-72
2021/12/03 01:51:04;;;;;;;3.45;1.10;;;12.30;99.90;;;;;;4936470;29;20050;-72
2021/12/03 01:54:08;;;;;;;1.70;0.70;;;12.30;99.90;;;;;;4935906;29;20043;-72
2021/12/03 01:57:12;;;;;;;10.80;0.93;;;12.30;99.90;;;;;;4935903;29;20055;-72
2021/12/03 02:00:29;;;;;;;2.17;0.68;;;12.30;99.90;;;;;;4936017;29;20050;-72
2021/12/03 02:03:35;;;;;;;2.95;1.13;;;12.20;99.90;;;;;;4935213;29;20500;-72
2021/12/03 02:06:39;;;;;;;0.88;0.50;;;12.10;99.90;;;;;;4935735;29;20070;-71
2021/12/03 02:09:43;;;;;;;0.50;0.40;;;12.10;99.90;;;;;;4935873;29;20055;-72
2021/12/03 02:12:48;;;;;;;2.72;0.57;;;12.10;99.90;;;;;;4935478;29;20038;-72
2021/12/03 02:15:52;;;;;;;3.28;0.63;;;12.10;99.90;;;;;;4935526;29;20503;-71
2021/12/03 02:18:56;;;;;;;0.98;0.77;;;12.10;99.90;;;;;;4935459;29;20058;-71
2021/12/03 02:22:00;;;;;;;2.15;1.50;;;12.00;99.90;;;;;;4934922;29;20047;-71
2021/12/03 02:25:07;;;;;;;2.72;0.65;;;11.80;99.90;;;;;;4935586;29;20058;-72
2021/12/03 02:28:11;;;;;;;1.15;0.80;;;11.80;99.90;;;;;;4935521;29;20059;-72
2021/12/03 02:31:18;;;;;;;2.97;1.20;;;11.80;99.90;;;;;;4935240;29;20535;-72
2021/12/03 02:34:22;;;;;;;3.13;1.50;;;11.80;99.90;;;;;;4934872;29;20067;-71
2021/12/03 02:37:26;;;;;;;5.22;2.10;;;11.90;99.90;;;;;;4935264;29;20411;-72
2021/12/03 02:40:30;;;;;;;7.05;1.70;;;11.90;99.90;;;;;;4935200;29;20391;-72
2021/12/03 02:43:35;;;;;;;3.63;1.73;;;11.70;99.90;;;;;;4935065;29;20062;-72
2021/12/03 02:46:39;;;;;;;3.67;1.50;;;11.50;99.90;;;;;;4935138;29;20592;-72
2021/12/03 02:49:43;;;;;;;5.43;1.60;;;11.50;99.90;;;;;;4934885;29;20039;-71
2021/12/03 02:52:49;;;;;;;1.80;0.80;;;11.40;99.90;;;;;;4935163;29;20070;-72
2021/12/03 02:55:52;;;;;;;2.38;1.38;;;11.50;99.90;;;;;;4934258;29;20047;-71
2021/12/03 02:58:56;;;;;;;2.28;1.25;;;11.40;99.90;;;;;;4934443;29;20054;-71
2021/12/03 03:02:02;;;;;;;4.47;1.60;;;11.40;99.90;;;;;;4934975;29;20042;-72
2021/12/03 03:05:07;;;;;;;5.35;1.80;;;11.40;99.90;;;;;;4934771;29;20050;-71
2021/12/03 03:08:10;;;;;;;3.10;1.90;;;11.40;99.90;;;;;;4934835;29;20391;-71
2021/12/03 03:11:21;;;;;;;2.50;1.30;;;11.40;99.90;;;;;;4934447;29;20051;-71
2021/12/03 03:14:25;;;;;;;2.65;1.40;;;11.30;99.90;;;;;;4934444;29;20065;-71
2021/12/03 03:17:30;;;;;;;2.08;1.15;;;11.30;99.90;;;;;;4933838;29;20590;-72
2021/12/03 03:20:34;;;;;;;3.13;1.50;;;11.40;99.90;;;;;;4934700;29;20527;-71
2021/12/03 03:23:39;;;;;;;2.65;1.30;;;11.50;99.90;;;;;;4934345;29;20039;-71
2021/12/03 03:26:45;;;;;;;2.17;1.15;;;11.60;99.90;;;;;;4934365;29;20043;-71
2021/12/03 03:29:51;;;;;;;3.88;1.55;;;11.70;99.90;;;;;;4934304;29;20042;-71
2021/12/03 03:32:56;;;;;;;2.28;1.60;;;11.60;99.90;;;;;;4933521;29;20507;-71
2021/12/03 03:36:00;;;;;;;2.97;1.88;;;11.50;99.90;;;;;;4934062;29;20054;-71
2021/12/03 03:39:06;;;;;;;4.05;1.90;;;11.40;99.90;;;;;;4933859;29;20058;-71
2021/12/03 03:42:10;;;;;;;4.28;1.83;;;11.40;99.90;;;;;;4934143;29;20050;-71
2021/12/03 03:45:18;;;;;;;3.47;2.40;;;11.50;99.90;;;;;;4933868;29;20051;-72
2021/12/03 03:48:23;;;;;;;3.72;2.25;;;11.60;99.90;;;;;;4934038;29;20047;-72
2021/12/03 03:51:28;;;;;;;4.55;2.58;;;11.70;99.90;;;;;;4934008;29;20047;-71
2021/12/03 03:54:33;;;;;;;4.82;2.70;;;11.60;99.90;;;;;;4933886;29;20325;-71
2021/12/03 03:57:38;;;;;;;4.38;2.33;;;11.60;99.90;;;;;;4933796;29;20059;-71
2021/12/03 04:00:44;;;;;;;6.20;2.40;;;11.60;99.90;;;;;;4933860;29;20105;-71
2021/12/03 04:03:48;;;;;;;3.60;2.33;;;11.70;99.90;;;;;;4934254;29;20047;-71
2021/12/03 04:06:53;;;;;;;5.82;2.20;;;11.80;99.90;;;;;;4933069;29;20058;-72
2021/12/03 04:09:57;;;;;;;3.22;1.80;;;11.70;99.90;;;;;;4933964;29;20531;-71
2021/12/03 04:13:02;;;;;;;3.95;1.83;;;11.70;99.90;;;;;;4933845;29;20551;-71
2021/12/03 04:16:06;;;;;;;5.15;1.60;;;11.70;99.90;;;;;;4933890;29;20046;-72
2021/12/03 04:19:11;;;;;;;2.20;1.58;;;11.50;99.90;;;;;;4933636;29;20523;-72
2021/12/03 04:22:17;;;;;;;3.30;1.75;;;11.50;99.90;;;;;;4933899;29;20511;-71
2021/12/03 04:25:23;;;;;;;3.28;1.67;;;11.50;99.90;;;;;;4933538;29;20050;-71
2021/12/03 04:28:27;;;;;;;2.92;1.20;;;11.60;99.90;;;;;;4933425;29;20396;-71
2021/12/03 04:31:31;;;;;;;3.10;1.13;;;11.70;99.90;;;;;;4934298;29;20062;-71
2021/12/03 04:34:35;;;;;;;1.58;0.80;;;11.70;99.90;;;;;;4933083;29;20055;-71
2021/12/03 04:37:39;;;;;;;3.22;0.93;;;11.70;99.90;;;;;;4933506;29;20077;-71
2021/12/03 04:40:44;;;;;;;1.67;0.90;;;11.80;99.90;;;;;;4933656;29;20047;-71
2021/12/03 04:43:48;;;;;;;2.20;0.70;;;11.80;99.90;;;;;;4933543;29;20051;-71
2021/12/03 04:46:52;;;;;;;1.38;0.80;;;11.80;99.90;;;;;;4933579;29;20050;-71
2021/12/03 04:49:56;;;;;;;2.42;1.33;;;11.80;99.90;;;;;;4933472;29;20050;-71
2021/12/03 04:52:59;;;;;;;3.85;1.30;;;11.80;99.90;;;;;;4933393;29;20042;-71
2021/12/03 04:56:03;;;;;;;3.22;1.33;;;11.70;99.90;;;;;;4933417;29;20042;-71
2021/12/03 04:59:07;;;;;;;3.15;1.20;;;11.60;99.90;;;;;;4933216;29;20059;-71
2021/12/03 05:02:12;;;;;;;3.35;1.20;;;11.60;99.90;;;;;;4933585;29;20503;-71
2021/12/03 05:05:16;;;;;;;5.50;1.30;;;11.60;99.90;;;;;;4933799;29;20051;-72
2021/12/03 05:08:20;;;;;;;3.15;1.33;;;11.60;99.90;;;;;;4933603;29;20051;-71
2021/12/03 05:11:24;;;;;;;4.38;1.58;;;11.70;99.90;;;;;;4933517;29;20054;-71
2021/12/03 05:14:29;;;;;;;3.78;1.30;;;11.60;99.90;;;;;;4933436;29;20042;-71
2021/12/03 05:17:32;;;;;;;3.42;2.17;;;11.60;99.90;;;;;;4933187;29;20086;-71
2021/12/03 05:20:36;;;;;;;4.05;2.45;;;11.60;99.90;;;;;;4936690;29;20062;-71
2021/12/03 05:23:40;;;;;;;5.78;3.40;;;11.50;99.90;;;;;;4936653;29;20047;-71
2021/12/03 05:26:45;;;;;;;4.50;3.15;;;11.50;99.90;;;;;;4935924;29;20124;-71
2021/12/03 05:29:49;;;;;;;5.32;3.83;;;11.50;99.90;;;;;;4936349;29;20505;-71
2021/12/03 05:32:53;;;;;;;5.57;3.40;;;11.40;99.90;;;;;;4936269;29;20050;-71
2021/12/03 05:35:58;;;;;;;6.20;3.17;;;11.40;99.90;;;;;;4936473;29;20060;-71
2021/12/03 05:39:02;;;;;;;5.30;2.92;;;11.40;99.90;;;;;;4936100;29;20058;-71
2021/12/03 05:42:07;;;;;;;3.42;2.58;;;11.50;99.90;;;;;;4936451;29;20065;-71
2021/12/03 05:45:17;;;;;;;6.15;2.85;;;11.50;99.90;;;;;;4936093;29;20042;-71
2021/12/03 05:48:21;;;;;;;7.47;4.18;;;11.50;99.90;;;;;;4935785;29;20505;-71
2021/12/03 05:51:26;;;;;;;5.22;3.13;;;11.60;99.90;;;;;;4935970;29;20055;-71
2021/12/03 05:54:30;;;;;;;7.78;4.35;;;11.60;99.90;;;;;;4935997;29;20043;-71
2021/12/03 05:57:35;;;;;;;3.63;3.00;;;11.60;99.90;;;;;;4936102;29;20054;-71
2021/12/03 06:00:41;;;;;;;8.35;3.67;;;11.70;99.90;;;;;;4935897;29;20055;-71
2021/12/03 06:03:47;;;;;;;3.58;2.90;;;11.70;99.90;;;;;;4935759;29;20497;-72
2021/12/03 06:06:51;;;;;;;5.07;2.78;;;11.70;99.90;;;;;;4936040;29;20047;-71
2021/12/03 06:09:54;;;;;;;3.78;2.63;;;11.70;99.90;;;;;;4935865;29;20039;-71
2021/12/03 06:12:59;;;;;;;7.63;4.93;;;11.70;99.90;;;;;;4935799;29;20051;-71
2021/12/03 06:16:03;;;;;;;8.20;4.32;;;11.70;99.90;;;;;;4935671;29;20046;-71
2021/12/03 06:19:08;;;;;;;6.18;3.90;;;11.70;99.90;;;;;;4935527;29;20050;-72
2021/12/03 06:22:12;;;;;;;6.65;4.32;;;11.70;99.90;;;;;;4935580;29;20047;-70
2021/12/03 06:25:17;;;;;;;6.93;4.50;;;11.70;99.90;;;;;;4935355;29;20059;-72
2021/12/03 06:28:21;;;;;;;7.50;5.50;;;11.70;99.90;;;;;;4935677;29;20051;-71
2021/12/03 06:31:25;;;;;;;12.45;8.05;;;11.70;99.90;;;;;;4935010;29;20543;-77
2021/12/03 06:34:29;;;;;;;15.07;11.73;;;11.80;99.90;;;;;;4935377;29;20063;-77
2021/12/03 06:37:34;;;;;;;13.82;10.52;;;11.80;99.90;;;;;;4934801;29;20067;-77
2021/12/03 06:40:38;;;;;;;14.98;11.80;;;11.80;99.90;;;;;;4935384;29;20059;-77
2021/12/03 06:43:42;;;;;;;16.73;12.73;;;11.80;99.90;;;;;;4934960;29;20051;-77
2021/12/03 06:46:46;;;;;;;13.82;9.93;;;11.80;99.90;;;;;;4935283;29;20047;-76
2021/12/03 06:49:50;;;;;;;14.20;7.30;;;11.80;99.90;;;;;;4934947;29;20050;-76
2021/12/03 06:53:00;;;;;;;9.85;6.90;;;11.70;99.90;;;;;;4934823;29;20043;-77
2021/12/03 06:56:08;;;;;;;13.70;6.70;;;11.70;99.90;;;;;;4935154;29;20042;-74
2021/12/03 06:59:13;;;;;;;10.93;5.22;;;11.80;99.90;;;;;;4934259;29;20058;-75
2021/12/03 07:02:16;;;;;;;8.35;4.55;;;11.80;99.90;;;;;;4935030;29;20066;-75
2021/12/03 07:05:20;;;;;;;9.00;4.13;;;11.80;99.90;;;;;;4934683;29;20062;-74
2021/12/03 07:08:25;;;;;;;5.32;3.85;;;11.80;99.90;;;;;;4934589;29;20043;-74
2021/12/03 07:11:29;;;;;;;6.28;4.43;;;11.80;99.90;;;;;;4934326;29;20051;-73
2021/12/03 07:14:33;;;;;;;5.60;4.15;;;11.80;99.90;;;;;;4934292;29;20050;-74
2021/12/03 07:17:36;;;;;;;8.32;5.13;;;11.80;99.90;;;;;;4934496;29;20055;-74
2021/12/03 07:20:40;;;;;;;10.95;5.72;;;11.90;99.90;;;;;;4934463;29;20062;-75
2021/12/03 07:23:45;;;;;;;9.90;6.07;;;11.90;99.90;;;;;;4934284;29;20046;-74
2021/12/03 07:26:49;;;;;;;10.48;6.13;;;11.90;99.90;;;;;;4934301;29;20046;-73
2021/12/03 07:29:53;;;;;;;12.32;6.30;;;11.90;99.90;;;;;;4934250;29;20047;-73
2021/12/03 07:32:57;;;;;;;13.57;5.50;;;11.90;99.90;;;;;;4934209;29;20047;-74
2021/12/03 07:36:01;;;;;;;12.30;7.25;;;11.80;99.90;;;;;;4933594;29;20062;-73
2021/12/03 07:39:06;;;;;;;8.40;4.88;;;11.90;99.90;;;;;;4934075;29;20058;-74
2021/12/03 07:42:10;;;;;;;10.73;5.05;;;11.90;99.90;;;;;;4932582;29;20050;-73
2021/12/03 07:45:16;;;;;;;6.60;5.03;;;12.00;99.90;;;;;;4934013;29;20070;-76
2021/12/03 07:48:23;;;;;;;7.20;4.88;;;12.00;99.90;;;;;;4933225;29;20051;-73
2021/12/03 07:51:27;;;;;;;9.25;5.50;;;12.10;99.90;;;;;;4933728;29;20046;-74
2021/12/03 07:54:31;;;;;;;8.95;5.53;;;12.20;99.90;;;;;;4933832;29;20060;-74
2021/12/03 07:57:35;;;;;;;9.93;6.05;;;12.20;99.90;;;;;;4934076;29;20051;-74
2021/12/03 08:00:39;;;;;;;11.35;5.25;;;12.20;99.90;;;;;;4934008;29;20059;-72
2021/12/03 08:03:43;;;;;;;8.77;5.95;;;12.30;99.90;;;;;;4933903;29;20495;-75
2021/12/03 08:06:51;;;;;;;16.25;7.95;;;12.30;99.90;;;;;;4932915;29;20498;-75
2021/12/03 08:09:55;;;;;;;16.70;7.82;;;12.30;99.90;;;;;;4934179;29;20062;-74
2021/12/03 08:12:59;;;;;;;10.07;6.57;;;12.20;99.90;;;;;;4933635;29;20042;-71
2021/12/03 08:16:03;;;;;;;9.13;6.03;;;12.20;99.90;;;;;;4933538;29;20047;-73
2021/12/03 08:19:07;;;;;;;8.82;5.45;;;12.20;99.90;;;;;;4933519;29;20452;-75
2021/12/03 08:22:11;;;;;;;8.98;5.07;;;12.20;99.90;;;;;;4933894;29;20043;-75
2021/12/03 08:25:15;;;;;;;7.15;4.68;;;12.20;99.90;;;;;;4933703;29;20070;-73
2021/12/03 08:28:20;;;;;;;6.85;4.40;;;12.20;99.90;;;;;;4933904;29;20384;-74
2021/12/03 08:31:23;;;;;;;8.68;4.60;;;12.20;99.90;;;;;;4933750;29;20057;-80
2021/12/03 08:34:27;;;;;;;5.97;4.03;;;12.20;99.90;;;;;;4936952;29;20066;-80
2021/12/03 08:37:31;;;;;;;6.20;3.55;;;12.30;99.90;;;;;;4936628;29;20523;-79
2021/12/03 08:40:35;;;;;;;7.60;4.03;;;12.30;99.90;;;;;;4935450;29;20055;-75
2021/12/03 08:43:40;;;;;;;6.60;4.07;;;12.30;99.90;;;;;;4933552;29;20051;-79
2021/12/03 08:46:44;;;;;;;8.10;4.78;;;12.20;99.90;;;;;;4933342;29;20046;-76
2021/12/03 08:49:53;;;;;;;12.55;5.88;;;12.10;99.90;;;;;;4933724;29;20047;-75
2021/12/03 08:56:08;;;;;;;14.83;7.43;;;12.20;99.90;;;;;;4936977;29;20499;-76
2021/12/03 08:59:15;;;;;;;13.60;8.20;;;12.20;99.90;;;;;;4936540;29;20062;-76
2021/12/03 09:02:20;;;;;;;13.40;8.23;;;12.20;99.90;;;;;;4936670;29;20047;-76
2021/12/03 09:05:29;;;;;;;17.88;10.05;;;12.20;99.90;;;;;;4936644;29;20519;-78
2021/12/03 09:08:32;;;;;;;16.77;9.75;;;12.20;99.90;;;;;;4936888;29;20050;-76
2021/12/03 09:11:37;;;;;;;11.30;7.65;;;12.20;99.90;;;;;;4936518;29;20055;-78
2021/12/03 09:14:44;;;;;;;13.02;7.80;;;12.20;99.90;;;;;;4935907;29;20051;-77
2021/12/03 09:18:11;;;;;;;15.45;6.97;;;12.30;99.90;;;;;;4936630;29;20046;-77
2021/12/03 09:21:35;;;;;;;12.48;7.68;;;12.20;99.90;;;;;;4936624;29;20055;-77
2021/12/03 09:24:39;;;;;;;21.33;10.55;;;12.20;99.90;;;;;;4936416;29;20051;-78
2021/12/03 09:27:43;;;;;;;13.75;9.60;;;12.20;99.90;;;;;;4936421;29;20066;-77
2021/12/03 09:30:48;;;;;;;13.77;8.77;;;12.30;99.90;;;;;;4935624;29;20440;-76
2021/12/03 09:33:52;;;;;;;11.90;6.82;;;12.30;99.90;;;;;;4935828;29;20061;-76
2021/12/03 09:36:57;;;;;;;15.48;6.55;;;12.30;99.90;;;;;;4936289;29;20055;-78
2021/12/03 09:40:06;;;;;;;16.00;10.15;;;12.40;99.90;;;;;;4936066;29;20054;-76
2021/12/03 09:43:10;;;;;;;22.25;12.55;;;12.50;99.90;;;;;;4935896;29;20046;-76
2021/12/03 09:46:22;;;;;;;14.10;8.90;;;12.40;99.90;;;;;;4936361;29;20046;-77
2021/12/03 09:49:33;;;;;;;13.23;7.88;;;12.50;99.90;;;;;;4936186;29;20389;-76
2021/12/03 09:56:00;;;;;;;9.13;6.20;;;12.50;99.90;;;;;;4936294;29;20042;-76
2021/12/03 10:15:56;;;;;;;;;;;12.50;99.90;;;;;;4935989;29;20054;-78
2021/12/03 10:19:17;;;;;;;7.85;4.40;;;12.50;99.90;;;;;;4935611;29;20286;-79
2021/12/03 10:26:37;;;;;;;9.73;5.57;;;12.50;99.90;;;;;;4935496;29;20055;-78
2021/12/03 10:29:26;;;;;;;9.65;5.47;;;12.50;99.90;;;;;;4938694;29;20047;-78
2021/12/03 10:43:12;;;;;;;10.93;5.72;;;12.60;99.90;;;;;;4935074;29;20046;-78
2021/12/03 10:52:40;;;;;;;11.63;6.20;;;12.60;99.90;;;;;;4934928;29;20058;-79
2021/12/03 11:02:49;;;;;;;10.90;5.95;;;12.70;99.90;;;;;;4934888;29;20046;-78
2021/12/03 11:13:06;;;;;;;9.82;6.60;;;12.80;99.90;;;;;;4934612;29;20055;-79
2021/12/03 13:05:14;;;;;;;4.68;2.47;;;12.90;97.20;;;;;;4936768;29;20076;-79
2021/12/03 13:14:35;;;;;;;2.33;1.75;;;12.80;97.20;;;;;;4934806;29;20047;-76
2021/12/03 14:38:37;;;;;;;4.65;2.25;;;12.80;93.00;;;;;;4935160;29;20066;-73
2021/12/03 14:44:57;;;;;;;5.80;2.95;;;12.80;92.30;;;;;;4935333;29;20046;-78
2021/12/03 14:54:50;;;;;;;7.30;1.90;;;12.80;93.10;;;;;;4935358;29;20050;-73
2021/12/03 14:58:19;;;;;;;9.70;4.07;;;12.80;92.70;;;;;;4935200;29;20050;-79
2021/12/03 15:02:12;;;;;;;7.88;1.60;;;12.70;92.80;;;;;;4934518;29;20058;-75
2021/12/03 15:08:01;;;;;;;8.00;4.35;;;12.70;92.90;;;;;;4934478;29;20050;-76
2021/12/03 16:10:10;;;;;;;19.60;10.77;;;12.60;92.30;;;;;;4933458;29;20051;-75
2021/12/03 16:16:49;;;;;;;8.95;3.78;;;12.60;92.10;;;;;;4933526;29;20391;-70
2021/12/03 16:52:56;;;;;;;10.57;4.80;;;12.70;90.40;;;;;;4933455;29;20058;-73
2021/12/03 16:56:08;;;;;;;13.73;7.85;;;12.70;90.60;;;;;;4933418;29;20102;-79
2021/12/03 16:59:12;;;;;;;5.97;3.08;;;12.70;90.90;;;;;;4933237;29;20506;-73
2021/12/03 17:02:21;;;;;;;11.70;5.70;;;12.60;90.90;;;;;;4932175;29;20070;-73
2021/12/03 17:05:47;;;;;;;11.07;6.70;;;12.60;90.30;;;;;;4932801;29;20063;-74
2021/12/03 17:51:50;;;;;;;6.70;2.97;;;12.80;88.90;;;;;;4936371;29;20047;-73
2021/12/03 17:58:24;;;;;;;12.00;6.50;;;12.70;88.10;;;;;;4936466;29;20051;-78
2021/12/03 18:01:33;;;;;;;7.03;3.72;;;12.70;88.40;;;;;;4934207;29;20054;-78
2021/12/03 18:04:52;;;;;;;6.30;3.42;;;12.60;88.80;;;;;;4935854;29;20051;-72
2021/12/03 18:48:15;;;;;;;3.72;2.17;;;12.70;86.60;;;;;;4934598;29;20043;-76
2021/12/03 18:51:29;;;;;;;9.00;3.72;;;12.60;86.60;;;;;;4937981;29;20215;-75
2021/12/03 18:57:43;;;;;;;5.35;2.65;;;12.60;86.40;;;;;;4934351;29;20065;-75
2021/12/03 19:00:47;;;;;;;6.22;2.20;;;12.70;86.50;;;;;;4934252;29;20051;-74
2021/12/03 19:07:20;;;;;;;15.93;8.20;;;12.70;86.70;;;;;;4934716;29;20051;-74
2021/12/03 19:10:26;;;;;;;15.30;8.38;;;12.70;86.60;;;;;;4934506;29;20063;-74
2021/12/03 19:13:36;;;;;;;7.43;3.72;;;12.70;86.20;;;;;;4934341;29;20051;-75
2021/12/03 19:16:40;;;;;;;4.38;1.80;;;12.70;86.10;;;;;;4934171;29;20499;-75
2021/12/03 19:19:46;;;;;;;9.35;5.35;;;12.70;86.00;;;;;;4934054;29;20043;-75
2021/12/03 19:22:50;;;;;;;4.80;2.42;;;12.70;86.40;;;;;;4934014;29;20055;-74
2021/12/03 19:25:54;;;;;;;5.68;2.20;;;12.70;86.50;;;;;;4934018;29;20047;-75
2021/12/03 19:29:00;;;;;;;13.27;5.57;;;12.70;87.00;;;;;;4935949;29;20050;-78
2021/12/03 19:32:06;;;;;;;2.88;1.75;;;12.70;87.10;;;;;;4935805;29;20318;-78
2021/12/03 19:35:10;;;;;;;6.30;3.67;;;12.70;86.50;;;;;;4934935;29;20051;-69
2021/12/03 19:38:16;;;;;;;7.28;3.08;;;12.70;86.80;;;;;;4933773;29;20043;-70
2021/12/03 19:47:56;;;;;;;4.13;1.90;;;12.50;88.00;;;;;;4933733;29;20066;-69
2021/12/03 19:51:00;;;;;;;4.55;1.40;;;12.40;88.70;;;;;;4933577;29;20043;-69
2021/12/03 19:54:05;;;;;;;3.38;1.60;;;12.40;88.20;;;;;;4933844;29;20414;-69
2021/12/03 19:57:09;;;;;;;2.08;0.95;;;12.40;87.80;;;;;;4933631;29;20054;-69
2021/12/03 20:00:14;;;;;;;4.18;1.83;;;12.40;87.40;;;;;;4933419;29;20062;-69
2021/12/03 20:03:20;;;;;;;10.27;4.50;;;12.40;87.70;;;;;;4932670;29;20058;-69
2021/12/03 20:06:25;;;;;;;5.47;2.45;;;12.40;87.40;;;;;;4933803;29;20404;-69
2021/12/03 20:09:38;;;;;;;4.25;1.25;;;12.50;88.50;;;;;;4933635;29;20051;-69
2021/12/03 20:12:46;;;;;;;3.30;1.90;;;12.40;87.70;;;;;;4933001;29;20047;-69
2021/12/03 20:19:05;;;;;;;2.40;2.10;;;12.40;87.70;;;;;;4933566;29;20412;-69
2021/12/03 20:29:04;;;;;;;3.20;1.35;;;12.40;88.50;;;;;;4933497;29;20047;-69
2021/12/03 20:32:14;;;;;;;5.38;1.88;;;12.30;87.60;;;;;;4933230;29;20043;-69
2021/12/03 20:38:41;;;;;;;5.68;1.90;;;12.30;87.80;;;;;;4933454;29;20042;-69
2021/12/03 20:42:02;;;;;;;2.85;1.52;;;12.30;87.50;;;;;;4932810;29;20613;-69
2021/12/03 21:08:42;;;;;;;7.15;2.60;;;12.10;87.20;;;;;;4936703;29;20043;-70
2021/12/03 21:11:54;;;;;;;3.83;2.33;;;12.20;86.50;;;;;;4936389;29;20043;-70
2021/12/03 21:21:35;;;;;;;2.47;1.45;;;12.20;86.00;;;;;;4935951;29;20082;-69
2021/12/03 21:24:42;;;;;;;5.00;1.38;;;12.30;84.90;;;;;;4936419;29;20047;-70
2021/12/03 21:27:54;;;;;;;11.15;4.40;;;12.40;85.40;;;;;;4935084;29;20047;-70
2021/12/03 21:31:06;;;;;;;7.05;2.30;;;12.30;86.30;;;;;;4935477;29;20042;-70
2021/12/03 21:41:10;;;;;;;3.58;1.55;;;12.30;84.10;;;;;;4935942;29;20054;-69
2021/12/03 21:44:16;;;;;;;2.90;1.27;;;12.40;84.00;;;;;;4935944;29;20047;-69
2021/12/03 21:47:20;;;;;;;6.45;1.70;;;12.40;83.80;;;;;;4936243;29;20415;-69
2021/12/03 21:50:24;;;;;;;7.15;2.05;;;12.40;85.00;;;;;;4936073;29;20050;-69
2021/12/03 21:53:27;;;;;;;6.30;2.70;;;12.30;85.70;;;;;;4935978;29;20047;-69
2021/12/03 21:56:32;;;;;;;3.20;1.60;;;12.20;85.60;;;;;;4936396;29;20043;-69
2021/12/03 21:59:36;;;;;;;4.32;1.15;;;12.10;85.40;;;;;;4935927;29;20043;-69
2021/12/03 22:02:40;;;;;;;2.58;1.20;;;12.10;85.10;;;;;;4935372;29;20066;-68
2021/12/03 22:05:45;;;;;;;5.03;1.30;;;12.20;84.20;;;;;;4935834;29;20047;-69
2021/12/03 22:08:49;;;;;;;1.80;1.13;;;12.30;84.00;;;;;;4935791;29;20047;-69
2021/12/03 22:11:53;;;;;;;4.55;1.75;;;12.20;84.20;;;;;;4935402;29;20042;-69
2021/12/03 22:14:57;;;;;;;3.47;1.00;;;12.30;83.70;;;;;;4935725;29;20050;-70
2021/12/03 22:18:01;;;;;;;6.00;1.75;;;12.30;83.90;;;;;;4935456;29;20043;-69
2021/12/03 22:21:06;;;;;;;3.97;1.40;;;12.30;82.90;;;;;;4935324;29;20164;-68
2021/12/03 22:24:10;;;;;;;6.03;2.05;;;12.30;82.90;;;;;;4935259;29;20047;-69
2021/12/03 22:27:14;;;;;;;4.32;1.55;;;12.30;82.80;;;;;;4935509;29;20051;-68
2021/12/03 22:30:18;;;;;;;4.03;1.20;;;12.30;81.20;;;;;;4935189;29;20605;-69
2021/12/03 22:33:24;;;;;;;5.78;1.23;;;12.40;80.70;;;;;;4934676;29;20050;-69
2021/12/03 22:36:28;;;;;;;3.63;1.60;;;12.40;80.80;;;;;;4935070;29;20055;-69
2021/12/03 22:39:32;;;;;;;2.58;1.02;;;12.40;81.30;;;;;;4935161;29;20047;-69
2021/12/03 22:42:36;;;;;;;8.60;1.60;;;12.40;80.90;;;;;;4934980;29;20055;-69
2021/12/03 22:49:18;;;;;;;4.28;1.48;;;12.40;80.70;;;;;;4934968;29;20046;-69
2021/12/03 22:52:22;;;;;;;3.80;1.60;;;12.40;80.70;;;;;;4934042;29;20074;-69
2021/12/03 22:55:27;;;;;;;4.00;1.02;;;12.30;81.40;;;;;;4934758;29;20050;-70
2021/12/03 22:58:32;;;;;;;2.20;1.00;;;12.20;81.60;;;;;;4934422;29;20042;-70
2021/12/03 23:01:37;;;;;;;2.47;1.00;;;12.20;80.50;;;;;;4934399;29;20444;-69
2021/12/03 23:04:42;;;;;;;5.20;1.33;;;12.30;80.90;;;;;;4934413;29;20051;-69
2021/12/03 23:07:46;;;;;;;2.28;0.90;;;12.30;79.00;;;;;;4934725;29;20058;-69
2021/12/03 23:10:51;;;;;;;3.28;1.42;;;12.30;79.50;;;;;;4934329;29;20055;-70
2021/12/03 23:13:55;;;;;;;4.05;1.52;;;12.20;79.60;;;;;;4933642;29;20043;-70
2021/12/03 23:17:00;;;;;;;2.42;1.23;;;12.20;80.10;;;;;;4934206;29;20050;-69
2021/12/03 23:20:05;;;;;;;2.40;1.50;;;12.10;80.00;;;;;;4934437;29;20050;-70
2021/12/03 23:23:10;;;;;;;2.72;1.85;;;12.10;80.60;;;;;;4934336;29;20059;-69
2021/12/03 23:26:18;;;;;;;3.80;2.08;;;12.00;81.10;;;;;;4934383;29;20046;-70
2021/12/03 23:29:22;;;;;;;3.67;1.55;;;12.00;81.90;;;;;;4934483;29;20458;-70
2021/12/03 23:32:26;;;;;;;7.65;2.28;;;12.00;82.90;;;;;;4933843;29;20074;-70
2021/12/03 23:35:30;;;;;;;5.38;2.22;;;12.00;84.10;;;;;;4933919;29;20051;-70
2021/12/03 23:38:34;;;;;;;11.05;2.58;;;11.90;84.40;;;;;;4934258;29;20047;-70
2021/12/03 23:41:38;;;;;;;6.05;2.80;;;11.80;84.10;;;;;;4933914;29;20063;-70
2021/12/03 23:44:42;;;;;;;3.95;2.40;;;11.70;86.10;;;;;;4934180;29;20054;-69
2021/12/03 23:47:46;;;;;;;7.00;2.80;;;11.60;86.30;;;;;;4933857;29;20051;-69
2021/12/03 23:50:50;;;;;;;9.43;3.47;;;11.60;84.20;;;;;;4934017;29;20039;-69
2021/12/03 23:53:56;;;;;;;7.97;3.05;;;11.50;86.20;;;;;;4933331;29;20404;-69
2021/12/03 23:57:01;;;;;;;6.70;3.47;;;11.50;87.70;;;;;;4933889;29;20400;-70
